createdAt,value
2016-06-14T00:00:59.385Z,12.9
2016-06-14T00:04:03.410Z,12.9
2016-06-14T00:07:16.887Z,12.9
2016-06-14T00:10:30.568Z,12.9
2016-06-14T00:13:43.718Z,12.9
2016-06-14T00:17:02.559Z,12.8
2016-06-14T00:20:06.474Z,12.8
2016-06-14T00:23:20.233Z,12.7
2016-06-14T00:26:34.086Z,12.7
2016-06-14T00:29:45.940Z,12.6
2016-06-14T00:33:01.639Z,12.5
2016-06-14T00:36:15.680Z,12.5
2016-06-14T00:39:29.720Z,12.6
2016-06-14T00:42:43.526Z,12.6
2016-06-14T00:46:02.476Z,12.6
2016-06-14T00:49:06.610Z,12.6
2016-06-14T00:52:20.525Z,12.6
2016-06-14T00:55:34.519Z,12.7
2016-06-14T00:58:53.434Z,12.6
2016-06-14T01:02:02.556Z,12.6
2016-06-14T01:05:06.723Z,12.6
2016-06-14T01:08:20.731Z,12.6
2016-06-14T01:11:34.522Z,12.7
2016-06-14T01:14:53.343Z,12.7
2016-06-14T01:18:02.544Z,12.7
2016-06-14T01:21:06.630Z,12.7
2016-06-14T01:24:20.545Z,12.7
2016-06-14T01:27:34.587Z,12.7
2016-06-14T01:30:53.455Z,12.7
2016-06-14T01:34:02.576Z,12.7
2016-06-14T01:37:06.585Z,12.7
2016-06-14T01:40:24.580Z,12.7
2016-06-14T01:43:34.057Z,12.7
2016-06-14T01:46:48.098Z,12.6
2016-06-14T01:50:01.875Z,12.6
2016-06-14T01:53:15.635Z,12.6
2016-06-14T01:56:27.597Z,12.6
2016-06-14T01:59:41.325Z,12.6
2016-06-14T02:03:00.134Z,12.6
2016-06-14T02:06:04.316Z,12.6
2016-06-14T02:09:18.044Z,12.7
2016-06-14T02:12:32.053Z,12.7
2016-06-14T02:15:46.093Z,12.7
2016-06-14T02:18:59.712Z,12.7
2016-06-14T02:22:13.614Z,12.7
2016-06-14T02:25:27.530Z,12.7
2016-06-14T02:28:41.492Z,12.7
2016-06-14T02:32:00.454Z,12.7
2016-06-14T02:35:04.577Z,12.8
2016-06-14T02:38:18.539Z,12.7
2016-06-14T02:41:32.642Z,12.7
2016-06-14T02:44:46.589Z,12.7
2016-06-14T02:48:00.286Z,12.7
2016-06-14T02:51:12.188Z,12.7
2016-06-14T02:54:28.119Z,12.7
2016-06-14T02:57:42.066Z,12.7
2016-06-14T03:01:00.950Z,12.7
2016-06-14T03:04:04.978Z,12.7
2016-06-14T03:07:18.660Z,12.7
2016-06-14T03:10:32.856Z,12.7
2016-06-14T03:13:47.006Z,12.7
2016-06-14T03:17:00.968Z,12.7
2016-06-14T03:20:14.855Z,12.7
2016-06-14T03:23:28.755Z,12.7
2016-06-14T03:26:42.889Z,12.8
2016-06-14T03:30:01.898Z,12.7
2016-06-14T03:33:05.677Z,12.8
2016-06-14T03:36:19.279Z,12.8
2016-06-14T03:39:31.071Z,12.8
2016-06-14T03:42:46.876Z,12.8
2016-06-14T03:46:00.370Z,12.9
2016-06-14T03:49:14.007Z,12.9
2016-06-14T03:52:27.766Z,12.8
2016-06-14T03:55:41.292Z,12.9
2016-06-14T03:59:00.222Z,12.9
2016-06-14T04:02:04.672Z,12.8
2016-06-14T04:05:18.712Z,12.8
2016-06-14T04:08:32.566Z,12.9
2016-06-14T04:11:46.575Z,12.9
2016-06-14T04:15:00.459Z,12.9
2016-06-14T04:18:14.971Z,13
2016-06-14T04:21:29.480Z,13
2016-06-14T04:24:43.881Z,13
2016-06-14T04:28:02.811Z,12.9
2016-06-14T04:31:07.918Z,13
2016-06-14T04:34:21.833Z,13
2016-06-14T04:37:35.982Z,13.1
2016-06-14T04:40:55.039Z,13.1
2016-06-14T04:43:59.251Z,13.1
2016-06-14T04:47:13.061Z,13.1
2016-06-14T04:50:26.742Z,13.1
2016-06-14T04:53:38.595Z,13.1
2016-06-14T04:56:59.822Z,13.2
2016-06-14T05:00:04.519Z,13.1
2016-06-14T05:03:18.172Z,13.2
2016-06-14T05:06:32.181Z,13.2
2016-06-14T05:09:46.144Z,13.2
2016-06-14T05:12:59.872Z,13.3
2016-06-14T05:16:13.697Z,13.3
2016-06-14T05:19:27.550Z,13.2
2016-06-14T05:22:41.137Z,13.3
2016-06-14T05:25:59.990Z,13.2
2016-06-14T05:29:04.343Z,13.3
2016-06-14T05:32:18.136Z,13.2
2016-06-14T05:35:31.739Z,13.2
2016-06-14T05:38:45.390Z,13.2
2016-06-14T05:41:59.118Z,13.3
2016-06-14T05:45:13.098Z,13.3
2016-06-14T05:48:27.029Z,13.3
2016-06-14T05:51:40.727Z,13.4
2016-06-14T05:54:59.328Z,13.4
2016-06-14T05:58:03.479Z,13.4
2016-06-14T06:01:17.335Z,13.5
2016-06-14T06:04:30.767Z,13.5
2016-06-14T06:07:44.791Z,13.5
2016-06-14T06:11:00.363Z,13.5
2016-06-14T06:14:04.169Z,13.6
2016-06-14T06:17:17.571Z,13.5
2016-06-14T06:20:31.393Z,13.6
2016-06-14T06:23:45.122Z,13.6
2016-06-14T06:27:01.334Z,13.7
2016-06-14T06:30:05.468Z,13.7
2016-06-14T06:33:19.637Z,13.7
2016-06-14T06:36:33.349Z,13.6
2016-06-14T06:39:47.171Z,13.6
2016-06-14T06:43:00.821Z,13.5
2016-06-14T06:46:14.324Z,13.5
2016-06-14T06:49:28.166Z,13.5
2016-06-14T06:52:42.195Z,13.4
2016-06-14T06:56:01.116Z,13.4
2016-06-14T06:59:05.171Z,13.4
2016-06-14T07:02:18.768Z,13.5
2016-06-14T07:05:32.598Z,13.5
2016-06-14T07:08:46.235Z,13.6
2016-06-14T07:11:59.870Z,13.7
2016-06-14T07:15:13.615Z,13.7
2016-06-14T07:18:27.361Z,13.7
2016-06-14T07:21:41.199Z,13.7
2016-06-14T07:25:00.396Z,13.7
2016-06-14T07:28:04.342Z,13.7
2016-06-14T07:31:18.961Z,13.7
2016-06-14T07:34:32.488Z,13.9
2016-06-14T07:37:46.263Z,13.8
2016-06-14T07:41:00.117Z,13.9
2016-06-14T07:44:13.829Z,14
2016-06-14T07:47:27.685Z,14.1
2016-06-14T07:50:41.381Z,14.1
2016-06-14T07:54:00.266Z,14.3
2016-06-14T07:57:02.150Z,14.4
2016-06-14T08:00:17.722Z,14.5
2016-06-14T08:03:31.516Z,14.5
2016-06-14T08:06:45.211Z,14.4
2016-06-14T08:09:59.674Z,14.4
2016-06-14T08:13:13.262Z,14.4
2016-06-14T08:16:27.305Z,14.4
2016-06-14T08:19:40.205Z,14.4
2016-06-14T08:22:58.949Z,14.4
2016-06-14T08:26:02.661Z,14.4
2016-06-14T08:29:15.999Z,14.4
2016-06-14T08:32:29.527Z,14.5
2016-06-14T08:35:43.723Z,14.6
2016-06-14T08:39:02.654Z,14.7
2016-06-14T08:42:07.133Z,14.7
2016-06-14T08:45:19.361Z,14.9
2016-06-14T08:55:24.706Z,15.1
2016-06-14T08:58:38.449Z,15.2
2016-06-14T09:01:57.303Z,15
2016-06-14T09:05:01.406Z,14.8
2016-06-14T09:08:15.088Z,14.8
2016-06-14T09:11:29.005Z,14.9
2016-06-14T09:14:42.468Z,15.5
2016-06-14T09:18:01.868Z,16.2
2016-06-14T09:21:06.331Z,16.8
2016-06-14T09:24:20.684Z,17
2016-06-14T09:27:34.899Z,17.1
2016-06-14T09:30:49.017Z,17.3
2016-06-14T09:34:03.387Z,18.1
2016-06-14T09:37:17.911Z,18.6
2016-06-14T09:40:32.766Z,18.7
2016-06-14T09:43:46.010Z,18.5
2016-06-14T09:47:00.942Z,18.4
2016-06-14T09:50:14.217Z,18.6
2016-06-14T09:53:28.979Z,18.9
2016-06-14T09:56:43.644Z,19.3
2016-06-14T10:00:03.622Z,19.5
2016-06-14T10:03:08.585Z,19.6
2016-06-14T10:06:23.656Z,19.8
2016-06-14T10:09:36.122Z,19.8
2016-06-14T10:12:57.474Z,19.7
2016-06-14T10:16:00.905Z,19.6
2016-06-14T10:19:14.243Z,19.7
2016-06-14T10:22:26.721Z,20.1
2016-06-14T10:25:41.311Z,20.3
2016-06-14T10:29:00.586Z,20.5
2016-06-14T10:32:05.439Z,20.4
2016-06-14T10:35:19.541Z,20.3
2016-06-14T10:38:33.867Z,20.1
2016-06-14T10:41:47.954Z,19.8
2016-06-14T10:45:01.948Z,19.4
2016-06-14T10:48:15.988Z,18.9
2016-06-14T10:51:30.063Z,18.5
2016-06-14T10:54:44.010Z,18
2016-06-14T10:58:02.737Z,17.6
2016-06-14T11:01:07.185Z,17.3
2016-06-14T11:04:21.303Z,17
2016-06-14T11:07:35.534Z,16.8
2016-06-14T11:10:54.512Z,16.5
2016-06-14T11:14:03.708Z,16.2
2016-06-14T11:17:08.061Z,16.1
2016-06-14T11:20:22.227Z,16
2016-06-14T11:23:36.193Z,16
2016-06-14T11:26:48.999Z,16
2016-06-14T11:30:02.477Z,16
2016-06-14T11:33:16.470Z,16.1
2016-06-14T11:36:30.432Z,16.2
2016-06-14T11:39:44.102Z,16.5
2016-06-14T11:43:03.048Z,16.8
2016-06-14T11:46:07.495Z,16.9
2016-06-14T11:49:21.910Z,17.1
2016-06-14T11:52:36.079Z,17.3
2016-06-14T11:55:55.307Z,17.3
2016-06-14T11:58:58.128Z,17.4
2016-06-14T12:02:14.481Z,17.4
2016-06-14T12:05:28.741Z,17.4
2016-06-14T12:08:42.691Z,17.4
2016-06-14T12:12:02.012Z,17.4
2016-06-14T12:15:06.553Z,17.4
2016-06-14T12:18:20.686Z,17.3
2016-06-14T12:21:34.668Z,17.2
2016-06-14T12:24:48.630Z,17.1
2016-06-14T12:28:02.546Z,17.1
2016-06-14T12:31:16.476Z,17.2
2016-06-14T12:34:28.518Z,17.3
2016-06-14T12:37:44.515Z,17.3
2016-06-14T12:41:02.930Z,17.3
2016-06-14T12:44:06.611Z,17.5
2016-06-14T12:47:20.980Z,17.6
2016-06-14T12:50:35.301Z,17.6
2016-06-14T12:53:54.907Z,17.6
2016-06-14T12:56:59.198Z,17.7
2016-06-14T13:00:12.910Z,17.7
2016-06-14T13:03:27.216Z,17.7
2016-06-14T13:06:41.522Z,17.8
2016-06-14T13:10:01.035Z,17.9
2016-06-14T13:13:05.841Z,17.9
2016-06-14T13:16:20.506Z,17.9
2016-06-14T13:19:35.140Z,17.9
2016-06-14T13:22:55.012Z,18
2016-06-14T13:25:59.912Z,18.1
2016-06-14T13:29:14.593Z,18.1
2016-06-14T13:32:29.212Z,18.2
2016-06-14T13:35:43.706Z,18.2
2016-06-14T13:39:03.358Z,18.2
2016-06-14T13:42:08.289Z,18.2
2016-06-14T13:45:22.690Z,18.3
2016-06-14T13:48:37.214Z,18.3
2016-06-14T13:51:56.555Z,18.3
2016-06-14T13:55:01.157Z,18.4
2016-06-14T13:58:15.198Z,18.3
2016-06-14T14:01:29.300Z,18.3
2016-06-14T14:04:43.498Z,18.2
2016-06-14T14:08:02.635Z,18.1
2016-06-14T14:11:07.191Z,18.1
2016-06-14T14:14:21.340Z,18.1
2016-06-14T14:17:36.131Z,18.1
2016-06-14T14:20:55.019Z,18.1
2016-06-14T14:23:59.575Z,18.1
2016-06-14T14:27:13.365Z,18.1
2016-06-14T14:30:27.514Z,18.2
2016-06-14T14:33:41.931Z,18.3
2016-06-14T14:37:01.021Z,18.4
2016-06-14T14:40:05.546Z,18.3
2016-06-14T14:43:19.258Z,18.3
2016-06-14T14:46:33.360Z,18.3
2016-06-14T14:49:45.636Z,18.3
2016-06-14T14:53:01.820Z,18.3
2016-06-14T14:56:15.877Z,18.4
2016-06-14T14:59:30.073Z,18.5
2016-06-14T15:02:44.488Z,18.5
2016-06-14T15:06:03.516Z,18.5
2016-06-14T15:09:07.931Z,18.4
2016-06-14T15:12:21.972Z,18.4
2016-06-14T15:15:36.153Z,18.4
2016-06-14T15:18:55.322Z,18.3
2016-06-14T15:21:59.988Z,18.4
2016-06-14T15:25:14.074Z,18.3
2016-06-14T15:28:28.209Z,18.3
2016-06-14T15:31:42.062Z,18.2
2016-06-14T15:35:01.214Z,18.2
2016-06-14T15:38:05.787Z,18.3
2016-06-14T15:41:19.827Z,18.3
2016-06-14T15:44:33.836Z,18.3
2016-06-14T15:47:48.126Z,18.3
2016-06-14T15:51:02.482Z,18.3
2016-06-14T15:54:16.560Z,18.4
2016-06-14T15:57:30.614Z,18.4
2016-06-14T16:00:45.107Z,18.6
2016-06-14T16:04:03.981Z,18.7
2016-06-14T16:07:08.520Z,18.9
2016-06-14T16:10:22.722Z,18.9
2016-06-14T16:13:37.032Z,18.9
2016-06-14T16:16:55.954Z,18.8
2016-06-14T16:20:00.480Z,18.8
2016-06-14T16:23:14.833Z,18.7
2016-06-14T16:26:29.093Z,18.6
2016-06-14T16:29:43.524Z,18.4
2016-06-14T16:33:02.473Z,18.4
2016-06-14T16:36:07.123Z,18.4
2016-06-14T16:39:21.460Z,18.4
2016-06-14T16:42:35.814Z,18.4
2016-06-14T16:45:55.169Z,18.3
2016-06-14T16:48:59.710Z,18.2
2016-06-14T16:52:14.219Z,18.2
2016-06-14T16:55:28.790Z,18.1
2016-06-14T16:58:43.488Z,18.1
2016-06-14T17:02:09.906Z,18
2016-06-14T17:05:08.024Z,18
2016-06-14T17:08:22.472Z,18
2016-06-14T17:11:37.042Z,18
2016-06-14T17:14:56.649Z,18
2016-06-14T17:18:01.315Z,17.9
2016-06-14T17:21:15.856Z,17.9
2016-06-14T17:24:29.958Z,18
2016-06-14T17:27:44.342Z,18.1
2016-06-14T17:31:03.621Z,18.1
2016-06-14T17:34:08.021Z,18.1
2016-06-14T17:37:22.169Z,18
2016-06-14T17:40:36.226Z,18
2016-06-14T17:43:55.957Z,18
2016-06-14T17:47:00.778Z,18
2016-06-14T17:50:15.225Z,18
2016-06-14T17:53:29.360Z,17.9
2016-06-14T17:56:43.244Z,17.9
2016-06-14T18:00:02.381Z,17.9
2016-06-14T18:03:06.719Z,17.9
2016-06-14T18:06:20.899Z,17.9
2016-06-14T18:09:35.128Z,17.9
2016-06-14T18:12:49.402Z,17.8
2016-06-14T18:16:03.711Z,17.8
2016-06-14T18:19:18.409Z,17.8
2016-06-14T18:22:32.965Z,17.7
2016-06-14T18:25:47.333Z,17.7
2016-06-14T18:29:01.768Z,17.6
2016-06-14T18:32:16.104Z,17.6
2016-06-14T18:35:30.333Z,17.6
2016-06-14T18:38:44.560Z,17.5
2016-06-14T18:42:03.541Z,17.5
2016-06-14T18:45:07.973Z,17.5
2016-06-14T18:48:20.420Z,17.4
2016-06-14T18:51:36.757Z,17.3
2016-06-14T18:54:48.578Z,17.2
2016-06-14T18:58:02.887Z,17.1
2016-06-14T19:01:16.663Z,17
2016-06-14T19:04:34.875Z,17
2016-06-14T19:07:44.603Z,17
2016-06-14T19:11:02.350Z,16.9
2016-06-14T19:14:06.874Z,16.9
2016-06-14T19:17:17.915Z,16.8
2016-06-14T19:20:31.314Z,16.7
2016-06-14T19:23:45.418Z,16.7
2016-06-14T19:27:00.836Z,16.6
2016-06-14T19:30:04.969Z,16.6
2016-06-14T19:33:22.917Z,16.5
2016-06-14T19:36:32.849Z,16.5
2016-06-14T19:39:46.794Z,16.5
2016-06-14T19:43:00.510Z,16.7
2016-06-14T19:46:14.613Z,16.6
2016-06-14T19:49:28.778Z,16.6
2016-06-14T19:52:43.413Z,16.5
2016-06-14T19:55:59.066Z,16.5
2016-06-14T19:59:03.544Z,16.4
2016-06-14T20:02:17.178Z,16.3
2016-06-14T20:05:31.015Z,16.3
2016-06-14T20:08:43.244Z,16.2
2016-06-14T20:12:04.240Z,16.1
2016-06-14T20:15:08.499Z,16
2016-06-14T20:18:22.664Z,15.9
2016-06-14T20:21:36.720Z,15.9
2016-06-14T20:24:55.793Z,15.9
2016-06-14T20:28:00.180Z,15.9
2016-06-14T20:31:14.423Z,15.9
2016-06-14T20:34:26.432Z,15.8
2016-06-14T20:37:40.411Z,15.8
2016-06-14T20:40:59.673Z,15.8
2016-06-14T20:44:04.322Z,15.8
2016-06-14T20:47:18.347Z,15.8
2016-06-14T20:50:32.590Z,15.8
2016-06-14T20:53:46.757Z,15.8
2016-06-14T20:56:58.925Z,15.8
2016-06-14T21:00:14.981Z,15.8
2016-06-14T21:03:27.506Z,15.8
2016-06-14T21:06:39.437Z,15.7
2016-06-14T21:09:55.243Z,15.7
2016-06-14T21:13:00.802Z,15.7
2016-06-14T21:16:14.687Z,15.7
2016-06-14T21:19:25.821Z,15.6
2016-06-14T21:22:39.846Z,15.6
2016-06-14T21:25:58.998Z,15.5
2016-06-14T21:29:03.710Z,15.5
2016-06-14T21:32:14.283Z,15.5
2016-06-14T21:35:27.573Z,15.4
2016-06-14T21:38:41.646Z,15.3
2016-06-14T21:42:00.580Z,15.3
2016-06-14T21:45:05.135Z,15.2
2016-06-14T21:48:17.832Z,15.2
2016-06-14T21:51:28.638Z,15.2
2016-06-14T21:54:40.695Z,15.1
2016-06-14T21:58:02.129Z,15.1
2016-06-14T22:01:06.605Z,15
2016-06-14T22:04:20.694Z,15
2016-06-14T22:07:34.781Z,14.9
2016-06-14T22:10:47.368Z,14.9
2016-06-14T22:14:01.053Z,14.9
2016-06-14T22:17:14.702Z,14.8
2016-06-14T22:20:28.899Z,14.8
2016-06-14T22:23:43.126Z,14.8
2016-06-14T22:27:02.264Z,14.7
2016-06-14T22:30:06.883Z,14.7
2016-06-14T22:33:20.423Z,14.7
2016-06-14T22:36:34.386Z,14.6
2016-06-14T22:39:48.442Z,14.6
2016-06-14T22:46:50.432Z,14.5
2016-06-14T22:53:03.360Z,14.5
2016-06-14T22:56:17.275Z,14.4
2016-06-14T22:59:31.191Z,14.5
2016-06-14T23:02:44.997Z,14.4
2016-06-14T23:06:01.416Z,14.4
2016-06-14T23:09:05.784Z,14.4
2016-06-14T23:12:19.543Z,14.3
2016-06-14T23:15:32.771Z,14.3
2016-06-14T23:18:46.670Z,14.2
2016-06-14T23:22:03.527Z,14.2
2016-06-14T23:25:14.380Z,14.2
2016-06-14T23:28:27.874Z,14.1
2016-06-14T23:31:38.243Z,14
2016-06-14T23:34:57.064Z,14
2016-06-14T23:38:01.526Z,14
2016-06-14T23:41:15.976Z,14
2016-06-14T23:44:28.579Z,14
2016-06-14T23:47:42.853Z,14
2016-06-14T23:51:02.004Z,13.9
2016-06-14T23:54:06.391Z,13.9
2016-06-14T23:57:20.587Z,13.9
